sensor_id;sensor_type;location;lat;lon;timestamp;P1;durP1;ratioP1;P2;durP2;ratioP2
30249;SDS011;17064;47.974;13.826;2024-01-15T00:04:21;54.67;;;17.70;;
30249;SDS011;17064;47.974;13.826;2024-01-15T00:09:41;47.50;;;14.73;;
30249;SDS011;17064;47.974;13.826;2024-01-15T00:15:00;49.97;;;15.77;;
30249;SDS011;17064;47.974;13.826;2024-01-15T00:20:19;42.55;;;15.75;;
30249;SDS011;17064;47.974;13.826;2024-01-15T00:25:38;43.42;;;15.02;;
30249;SDS011;17064;47.974;13.826;2024-01-15T00:30:57;50.40;;;16.33;;
30249;SDS011;17064;47.974;13.826;2024-01-15T00:36:17;59.90;;;17.02;;
30249;SDS011;17064;47.974;13.826;2024-01-15T00:41:36;56.55;;;17.00;;
30249;SDS011;17064;47.974;13.826;2024-01-15T00:46:56;43.00;;;13.07;;
30249;SDS011;17064;47.974;13.826;2024-01-15T00:52:15;32.33;;;11.02;;
30249;SDS011;17064;47.974;13.826;2024-01-15T00:57:34;24.88;;;7.10;;
30249;SDS011;17064;47.974;13.826;2024-01-15T01:02:53;10.23;;;4.35;;
30249;SDS011;17064;47.974;13.826;2024-01-15T01:08:12;9.52;;;3.58;;
30249;SDS011;17064;47.974;13.826;2024-01-15T01:13:31;7.60;;;3.05;;
30249;SDS011;17064;47.974;13.826;2024-01-15T01:18:51;10.05;;;3.17;;
30249;SDS011;17064;47.974;13.826;2024-01-15T01:24:11;11.32;;;4.45;;
30249;SDS011;17064;47.974;13.826;2024-01-15T01:29:30;13.82;;;3.90;;
30249;SDS011;17064;47.974;13.826;2024-01-15T01:34:50;11.27;;;4.18;;
30249;SDS011;17064;47.974;13.826;2024-01-15T01:40:09;12.07;;;4.05;;
30249;SDS011;17064;47.974;13.826;2024-01-15T01:45:29;10.35;;;4.28;;
30249;SDS011;17064;47.974;13.826;2024-01-15T01:50:48;9.80;;;4.30;;
30249;SDS011;17064;47.974;13.826;2024-01-15T01:56:07;9.57;;;4.50;;
30249;SDS011;17064;47.974;13.826;2024-01-15T02:01:28;9.80;;;4.13;;
30249;SDS011;17064;47.974;13.826;2024-01-15T02:06:48;9.75;;;4.38;;
30249;SDS011;17064;47.974;13.826;2024-01-15T02:12:08;7.93;;;3.47;;
30249;SDS011;17064;47.974;13.826;2024-01-15T02:17:28;7.90;;;4.15;;
30249;SDS011;17064;47.974;13.826;2024-01-15T02:22:47;12.52;;;4.13;;
30249;SDS011;17064;47.974;13.826;2024-01-15T02:28:10;11.95;;;3.70;;
30249;SDS011;17064;47.974;13.826;2024-01-15T02:33:31;7.50;;;3.70;;
30249;SDS011;17064;47.974;13.826;2024-01-15T02:38:50;12.25;;;4.50;;
30249;SDS011;17064;47.974;13.826;2024-01-15T02:44:10;11.63;;;4.20;;
30249;SDS011;17064;47.974;13.826;2024-01-15T02:49:29;8.50;;;4.00;;
30249;SDS011;17064;47.974;13.826;2024-01-15T02:54:49;11.45;;;4.32;;
30249;SDS011;17064;47.974;13.826;2024-01-15T03:00:09;12.05;;;4.53;;
30249;SDS011;17064;47.974;13.826;2024-01-15T03:05:28;10.48;;;4.00;;
30249;SDS011;17064;47.974;13.826;2024-01-15T03:10:47;9.60;;;4.47;;
30249;SDS011;17064;47.974;13.826;2024-01-15T03:16:06;10.57;;;3.30;;
30249;SDS011;17064;47.974;13.826;2024-01-15T03:21:26;10.52;;;3.28;;
30249;SDS011;17064;47.974;13.826;2024-01-15T03:26:45;7.72;;;3.28;;
30249;SDS011;17064;47.974;13.826;2024-01-15T03:32:04;8.88;;;3.00;;
30249;SDS011;17064;47.974;13.826;2024-01-15T03:37:24;7.95;;;3.38;;
30249;SDS011;17064;47.974;13.826;2024-01-15T03:42:44;4.65;;;2.35;;
30249;SDS011;17064;47.974;13.826;2024-01-15T03:48:03;7.57;;;3.22;;
30249;SDS011;17064;47.974;13.826;2024-01-15T03:53:23;4.25;;;2.30;;
30249;SDS011;17064;47.974;13.826;2024-01-15T03:58:42;7.65;;;2.78;;
30249;SDS011;17064;47.974;13.826;2024-01-15T04:04:01;7.22;;;2.65;;
30249;SDS011;17064;47.974;13.826;2024-01-15T04:09:20;9.63;;;2.40;;
30249;SDS011;17064;47.974;13.826;2024-01-15T04:14:40;6.80;;;2.78;;
30249;SDS011;17064;47.974;13.826;2024-01-15T04:19:59;6.22;;;2.60;;
30249;SDS011;17064;47.974;13.826;2024-01-15T04:25:19;3.65;;;1.90;;
30249;SDS011;17064;47.974;13.826;2024-01-15T04:30:38;4.63;;;2.22;;
30249;SDS011;17064;47.974;13.826;2024-01-15T04:36:01;3.63;;;1.88;;
30249;SDS011;17064;47.974;13.826;2024-01-15T04:41:21;4.15;;;1.90;;
30249;SDS011;17064;47.974;13.826;2024-01-15T04:46:41;4.90;;;2.17;;
30249;SDS011;17064;47.974;13.826;2024-01-15T04:52:02;3.90;;;1.55;;
30249;SDS011;17064;47.974;13.826;2024-01-15T04:57:21;6.00;;;1.80;;
30249;SDS011;17064;47.974;13.826;2024-01-15T05:02:40;4.13;;;1.90;;
30249;SDS011;17064;47.974;13.826;2024-01-15T05:08:00;4.90;;;2.15;;
30249;SDS011;17064;47.974;13.826;2024-01-15T05:13:19;2.67;;;1.55;;
30249;SDS011;17064;47.974;13.826;2024-01-15T05:18:38;6.05;;;2.03;;
30249;SDS011;17064;47.974;13.826;2024-01-15T05:23:57;6.20;;;2.38;;
30249;SDS011;17064;47.974;13.826;2024-01-15T05:29:16;8.25;;;2.50;;
30249;SDS011;17064;47.974;13.826;2024-01-15T05:34:36;4.80;;;2.25;;
30249;SDS011;17064;47.974;13.826;2024-01-15T05:39:55;5.15;;;2.30;;
30249;SDS011;17064;47.974;13.826;2024-01-15T05:45:15;7.38;;;3.25;;
30249;SDS011;17064;47.974;13.826;2024-01-15T05:50:34;4.43;;;2.20;;
30249;SDS011;17064;47.974;13.826;2024-01-15T05:55:53;10.15;;;3.53;;
30249;SDS011;17064;47.974;13.826;2024-01-15T06:01:14;7.15;;;2.92;;
30249;SDS011;17064;47.974;13.826;2024-01-15T06:06:33;6.18;;;3.00;;
30249;SDS011;17064;47.974;13.826;2024-01-15T06:11:53;5.45;;;2.53;;
30249;SDS011;17064;47.974;13.826;2024-01-15T06:17:12;9.65;;;3.70;;
30249;SDS011;17064;47.974;13.826;2024-01-15T06:22:31;7.00;;;3.22;;
30249;SDS011;17064;47.974;13.826;2024-01-15T06:27:51;8.70;;;3.55;;
30249;SDS011;17064;47.974;13.826;2024-01-15T06:33:10;11.25;;;3.40;;
30249;SDS011;17064;47.974;13.826;2024-01-15T06:38:29;7.15;;;3.17;;
30249;SDS011;17064;47.974;13.826;2024-01-15T06:43:48;8.07;;;4.10;;
30249;SDS011;17064;47.974;13.826;2024-01-15T06:49:08;10.30;;;3.45;;
30249;SDS011;17064;47.974;13.826;2024-01-15T06:54:27;6.85;;;3.80;;
30249;SDS011;17064;47.974;13.826;2024-01-15T06:59:46;8.38;;;3.65;;
30249;SDS011;17064;47.974;13.826;2024-01-15T07:05:05;9.13;;;3.47;;
30249;SDS011;17064;47.974;13.826;2024-01-15T07:10:25;8.35;;;3.28;;
30249;SDS011;17064;47.974;13.826;2024-01-15T07:15:44;7.15;;;3.00;;
30249;SDS011;17064;47.974;13.826;2024-01-15T07:21:04;5.90;;;3.03;;
30249;SDS011;17064;47.974;13.826;2024-01-15T07:26:23;8.10;;;3.15;;
30249;SDS011;17064;47.974;13.826;2024-01-15T07:31:47;5.00;;;2.38;;
30249;SDS011;17064;47.974;13.826;2024-01-15T07:37:07;7.50;;;2.90;;
30249;SDS011;17064;47.974;13.826;2024-01-15T07:42:27;5.72;;;2.80;;
30249;SDS011;17064;47.974;13.826;2024-01-15T07:47:46;7.28;;;3.13;;
30249;SDS011;17064;47.974;13.826;2024-01-15T07:53:06;6.97;;;2.95;;
30249;SDS011;17064;47.974;13.826;2024-01-15T07:58:25;5.25;;;2.47;;
30249;SDS011;17064;47.974;13.826;2024-01-15T08:03:44;3.60;;;2.03;;
30249;SDS011;17064;47.974;13.826;2024-01-15T08:09:04;4.00;;;2.20;;
30249;SDS011;17064;47.974;13.826;2024-01-15T08:14:23;9.23;;;2.92;;
30249;SDS011;17064;47.974;13.826;2024-01-15T08:19:43;5.10;;;2.50;;
30249;SDS011;17064;47.974;13.826;2024-01-15T08:25:02;6.43;;;2.53;;
30249;SDS011;17064;47.974;13.826;2024-01-15T08:30:22;5.30;;;2.00;;
30249;SDS011;17064;47.974;13.826;2024-01-15T08:35:45;5.20;;;3.08;;
30249;SDS011;17064;47.974;13.826;2024-01-15T08:41:05;5.32;;;2.47;;
30249;SDS011;17064;47.974;13.826;2024-01-15T08:46:24;4.53;;;2.50;;
30249;SDS011;17064;47.974;13.826;2024-01-15T08:51:43;7.05;;;2.60;;
30249;SDS011;17064;47.974;13.826;2024-01-15T08:57:02;4.85;;;2.42;;
30249;SDS011;17064;47.974;13.826;2024-01-15T09:02:21;3.97;;;2.67;;
30249;SDS011;17064;47.974;13.826;2024-01-15T09:07:40;5.57;;;2.47;;
30249;SDS011;17064;47.974;13.826;2024-01-15T09:13:00;4.45;;;2.25;;
30249;SDS011;17064;47.974;13.826;2024-01-15T09:18:19;4.25;;;2.60;;
30249;SDS011;17064;47.974;13.826;2024-01-15T09:23:38;4.38;;;2.15;;
30249;SDS011;17064;47.974;13.826;2024-01-15T09:28:57;5.95;;;2.38;;
30249;SDS011;17064;47.974;13.826;2024-01-15T09:34:17;3.63;;;1.98;;
30249;SDS011;17064;47.974;13.826;2024-01-15T09:39:37;6.30;;;2.08;;
30249;SDS011;17064;47.974;13.826;2024-01-15T09:44:56;5.40;;;1.98;;
30249;SDS011;17064;47.974;13.826;2024-01-15T09:50:16;5.57;;;2.72;;
30249;SDS011;17064;47.974;13.826;2024-01-15T09:55:38;3.80;;;2.05;;
30249;SDS011;17064;47.974;13.826;2024-01-15T10:00:58;6.18;;;2.13;;
30249;SDS011;17064;47.974;13.826;2024-01-15T10:06:19;5.20;;;2.20;;
30249;SDS011;17064;47.974;13.826;2024-01-15T10:11:41;4.18;;;1.77;;
30249;SDS011;17064;47.974;13.826;2024-01-15T10:17:08;5.90;;;1.70;;
30249;SDS011;17064;47.974;13.826;2024-01-15T10:22:32;3.42;;;1.27;;
30249;SDS011;17064;47.974;13.826;2024-01-15T10:28:02;4.75;;;1.65;;
30249;SDS011;17064;47.974;13.826;2024-01-15T10:33:22;4.25;;;2.22;;
30249;SDS011;17064;47.974;13.826;2024-01-15T10:38:46;2.73;;;1.60;;
30249;SDS011;17064;47.974;13.826;2024-01-15T10:44:05;8.93;;;1.92;;
30249;SDS011;17064;47.974;13.826;2024-01-15T10:49:24;3.08;;;1.67;;
30249;SDS011;17064;47.974;13.826;2024-01-15T10:54:48;3.60;;;1.38;;
30249;SDS011;17064;47.974;13.826;2024-01-15T11:00:09;3.25;;;1.90;;
30249;SDS011;17064;47.974;13.826;2024-01-15T11:05:37;1.73;;;1.13;;
30249;SDS011;17064;47.974;13.826;2024-01-15T11:10:59;2.35;;;1.00;;
30249;SDS011;17064;47.974;13.826;2024-01-15T11:16:19;1.15;;;0.65;;
30249;SDS011;17064;47.974;13.826;2024-01-15T11:21:42;1.35;;;0.68;;
30249;SDS011;17064;47.974;13.826;2024-01-15T11:27:01;1.20;;;0.70;;
30249;SDS011;17064;47.974;13.826;2024-01-15T11:32:21;1.73;;;0.80;;
30249;SDS011;17064;47.974;13.826;2024-01-15T11:43:15;1.87;;;1.07;;
30249;SDS011;17064;47.974;13.826;2024-01-15T11:48:43;1.77;;;1.10;;
30249;SDS011;17064;47.974;13.826;2024-01-15T11:54:06;2.35;;;1.20;;
30249;SDS011;17064;47.974;13.826;2024-01-15T11:59:28;6.90;;;1.10;;
30249;SDS011;17064;47.974;13.826;2024-01-15T12:04:48;9.98;;;1.67;;
30249;SDS011;17064;47.974;13.826;2024-01-15T12:10:10;6.03;;;1.77;;
30249;SDS011;17064;47.974;13.826;2024-01-15T12:15:31;9.95;;;1.42;;
30249;SDS011;17064;47.974;13.826;2024-01-15T12:20:53;6.25;;;2.58;;
30249;SDS011;17064;47.974;13.826;2024-01-15T12:26:13;6.78;;;2.20;;
30249;SDS011;17064;47.974;13.826;2024-01-15T12:31:32;23.10;;;6.95;;
30249;SDS011;17064;47.974;13.826;2024-01-15T12:36:53;11.30;;;2.97;;
30249;SDS011;17064;47.974;13.826;2024-01-15T12:42:16;9.25;;;2.92;;
30249;SDS011;17064;47.974;13.826;2024-01-15T12:47:36;3.20;;;1.43;;
30249;SDS011;17064;47.974;13.826;2024-01-15T12:52:55;1.83;;;0.73;;
30249;SDS011;17064;47.974;13.826;2024-01-15T12:58:14;9.88;;;3.40;;
30249;SDS011;17064;47.974;13.826;2024-01-15T13:03:34;7.60;;;3.00;;
30249;SDS011;17064;47.974;13.826;2024-01-15T13:08:53;3.42;;;1.63;;
30249;SDS011;17064;47.974;13.826;2024-01-15T13:14:13;1.10;;;0.80;;
30249;SDS011;17064;47.974;13.826;2024-01-15T13:19:33;3.63;;;2.55;;
30249;SDS011;17064;47.974;13.826;2024-01-15T13:24:52;4.15;;;1.73;;
30249;SDS011;17064;47.974;13.826;2024-01-15T13:30:11;10.57;;;4.28;;
30249;SDS011;17064;47.974;13.826;2024-01-15T13:35:31;3.95;;;1.63;;
30249;SDS011;17064;47.974;13.826;2024-01-15T13:40:50;3.03;;;1.73;;
30249;SDS011;17064;47.974;13.826;2024-01-15T13:46:10;8.02;;;2.78;;
30249;SDS011;17064;47.974;13.826;2024-01-15T13:51:29;1.55;;;1.00;;
30249;SDS011;17064;47.974;13.826;2024-01-15T13:56:48;0.80;;;0.70;;
30249;SDS011;17064;47.974;13.826;2024-01-15T14:02:08;5.35;;;1.15;;
30249;SDS011;17064;47.974;13.826;2024-01-15T14:07:28;2.90;;;1.02;;
30249;SDS011;17064;47.974;13.826;2024-01-15T14:12:48;0.88;;;0.85;;
30249;SDS011;17064;47.974;13.826;2024-01-15T14:18:07;0.80;;;0.70;;
30249;SDS011;17064;47.974;13.826;2024-01-15T14:23:28;3.13;;;1.00;;
30249;SDS011;17064;47.974;13.826;2024-01-15T14:28:47;4.18;;;0.98;;
30249;SDS011;17064;47.974;13.826;2024-01-15T14:34:07;5.78;;;0.98;;
30249;SDS011;17064;47.974;13.826;2024-01-15T14:39:26;2.15;;;1.00;;
30249;SDS011;17064;47.974;13.826;2024-01-15T14:44:46;2.42;;;1.10;;
30249;SDS011;17064;47.974;13.826;2024-01-15T14:50:06;3.50;;;1.08;;
30249;SDS011;17064;47.974;13.826;2024-01-15T14:55:26;2.40;;;0.90;;
30249;SDS011;17064;47.974;13.826;2024-01-15T15:00:46;1.50;;;0.85;;
30249;SDS011;17064;47.974;13.826;2024-01-15T15:06:06;1.40;;;0.88;;
30249;SDS011;17064;47.974;13.826;2024-01-15T15:11:28;5.32;;;2.10;;
30249;SDS011;17064;47.974;13.826;2024-01-15T15:16:47;1.83;;;0.82;;
30249;SDS011;17064;47.974;13.826;2024-01-15T15:22:07;3.40;;;1.05;;
30249;SDS011;17064;47.974;13.826;2024-01-15T15:27:29;1.83;;;1.02;;
30249;SDS011;17064;47.974;13.826;2024-01-15T15:32:49;3.40;;;0.75;;
30249;SDS011;17064;47.974;13.826;2024-01-15T15:38:08;1.55;;;0.55;;
30249;SDS011;17064;47.974;13.826;2024-01-15T15:43:27;1.38;;;0.88;;
30249;SDS011;17064;47.974;13.826;2024-01-15T15:48:47;4.13;;;0.80;;
30249;SDS011;17064;47.974;13.826;2024-01-15T15:54:07;0.98;;;0.55;;
30249;SDS011;17064;47.974;13.826;2024-01-15T15:59:26;1.63;;;1.00;;
30249;SDS011;17064;47.974;13.826;2024-01-15T16:04:46;2.00;;;0.98;;
30249;SDS011;17064;47.974;13.826;2024-01-15T16:10:05;3.92;;;1.20;;
30249;SDS011;17064;47.974;13.826;2024-01-15T16:15:25;6.55;;;1.92;;
30249;SDS011;17064;47.974;13.826;2024-01-15T16:20:46;2.88;;;1.35;;
30249;SDS011;17064;47.974;13.826;2024-01-15T16:26:06;1.85;;;1.10;;
30249;SDS011;17064;47.974;13.826;2024-01-15T16:31:25;5.43;;;0.90;;
30249;SDS011;17064;47.974;13.826;2024-01-15T16:36:45;1.92;;;0.80;;
30249;SDS011;17064;47.974;13.826;2024-01-15T16:42:04;1.20;;;0.90;;
30249;SDS011;17064;47.974;13.826;2024-01-15T16:47:24;2.10;;;0.93;;
30249;SDS011;17064;47.974;13.826;2024-01-15T16:52:44;2.00;;;1.50;;
30249;SDS011;17064;47.974;13.826;2024-01-15T16:58:03;2.58;;;1.42;;
30249;SDS011;17064;47.974;13.826;2024-01-15T17:03:22;2.75;;;1.17;;
30249;SDS011;17064;47.974;13.826;2024-01-15T17:08:42;4.45;;;1.75;;
30249;SDS011;17064;47.974;13.826;2024-01-15T17:14:01;3.15;;;1.77;;
30249;SDS011;17064;47.974;13.826;2024-01-15T17:19:23;1.67;;;1.20;;
30249;SDS011;17064;47.974;13.826;2024-01-15T17:24:45;1.95;;;1.45;;
30249;SDS011;17064;47.974;13.826;2024-01-15T17:30:05;2.70;;;1.08;;
30249;SDS011;17064;47.974;13.826;2024-01-15T17:35:29;2.80;;;1.55;;
30249;SDS011;17064;47.974;13.826;2024-01-15T17:40:48;2.17;;;1.30;;
30249;SDS011;17064;47.974;13.826;2024-01-15T17:46:08;2.15;;;1.15;;
30249;SDS011;17064;47.974;13.826;2024-01-15T17:51:27;4.03;;;1.60;;
30249;SDS011;17064;47.974;13.826;2024-01-15T17:56:51;1.65;;;1.45;;
30249;SDS011;17064;47.974;13.826;2024-01-15T18:02:10;2.55;;;1.58;;
30249;SDS011;17064;47.974;13.826;2024-01-15T18:07:30;3.30;;;1.90;;
30249;SDS011;17064;47.974;13.826;2024-01-15T18:12:49;5.45;;;2.28;;
30249;SDS011;17064;47.974;13.826;2024-01-15T18:18:10;5.35;;;2.05;;
30249;SDS011;17064;47.974;13.826;2024-01-15T18:23:30;4.22;;;2.15;;
30249;SDS011;17064;47.974;13.826;2024-01-15T18:28:50;2.30;;;1.65;;
30249;SDS011;17064;47.974;13.826;2024-01-15T18:34:09;4.50;;;1.98;;
30249;SDS011;17064;47.974;13.826;2024-01-15T18:39:31;3.80;;;1.73;;
30249;SDS011;17064;47.974;13.826;2024-01-15T18:44:50;7.30;;;2.00;;
30249;SDS011;17064;47.974;13.826;2024-01-15T18:50:09;4.20;;;2.28;;
30249;SDS011;17064;47.974;13.826;2024-01-15T18:55:31;3.50;;;1.80;;
30249;SDS011;17064;47.974;13.826;2024-01-15T19:00:50;4.50;;;2.15;;
30249;SDS011;17064;47.974;13.826;2024-01-15T19:06:09;3.95;;;1.70;;
30249;SDS011;17064;47.974;13.826;2024-01-15T19:11:30;4.13;;;2.17;;
30249;SDS011;17064;47.974;13.826;2024-01-15T19:16:50;2.67;;;1.77;;
30249;SDS011;17064;47.974;13.826;2024-01-15T19:22:10;2.35;;;1.80;;
30249;SDS011;17064;47.974;13.826;2024-01-15T19:27:29;4.07;;;2.28;;
30249;SDS011;17064;47.974;13.826;2024-01-15T19:32:49;3.55;;;2.13;;
30249;SDS011;17064;47.974;13.826;2024-01-15T19:38:09;2.78;;;1.88;;
30249;SDS011;17064;47.974;13.826;2024-01-15T19:43:28;5.45;;;2.30;;
30249;SDS011;17064;47.974;13.826;2024-01-15T19:48:47;2.65;;;1.63;;
30249;SDS011;17064;47.974;13.826;2024-01-15T19:54:07;3.25;;;2.20;;
30249;SDS011;17064;47.974;13.826;2024-01-15T19:59:26;4.55;;;2.08;;
30249;SDS011;17064;47.974;13.826;2024-01-15T20:04:45;3.72;;;2.25;;
30249;SDS011;17064;47.974;13.826;2024-01-15T20:10:05;3.60;;;2.00;;
30249;SDS011;17064;47.974;13.826;2024-01-15T20:15:25;6.28;;;2.22;;
30249;SDS011;17064;47.974;13.826;2024-01-15T20:20:47;3.97;;;2.80;;
30249;SDS011;17064;47.974;13.826;2024-01-15T20:26:06;6.07;;;3.13;;
30249;SDS011;17064;47.974;13.826;2024-01-15T20:31:26;7.07;;;3.45;;
30249;SDS011;17064;47.974;13.826;2024-01-15T20:36:47;7.10;;;2.65;;
30249;SDS011;17064;47.974;13.826;2024-01-15T20:42:07;4.95;;;2.67;;
30249;SDS011;17064;47.974;13.826;2024-01-15T20:47:26;4.63;;;2.60;;
30249;SDS011;17064;47.974;13.826;2024-01-15T20:52:45;5.97;;;2.53;;
30249;SDS011;17064;47.974;13.826;2024-01-15T20:58:13;3.67;;;2.28;;
30249;SDS011;17064;47.974;13.826;2024-01-15T21:03:39;3.78;;;2.50;;
30249;SDS011;17064;47.974;13.826;2024-01-15T21:09:01;4.53;;;2.90;;
30249;SDS011;17064;47.974;13.826;2024-01-15T21:14:23;4.63;;;2.30;;
30249;SDS011;17064;47.974;13.826;2024-01-15T21:19:43;3.35;;;2.22;;
30249;SDS011;17064;47.974;13.826;2024-01-15T21:25:03;4.28;;;2.45;;
30249;SDS011;17064;47.974;13.826;2024-01-15T21:30:29;5.88;;;2.85;;
30249;SDS011;17064;47.974;13.826;2024-01-15T21:35:53;5.07;;;2.65;;
30249;SDS011;17064;47.974;13.826;2024-01-15T21:41:13;3.97;;;2.55;;
30249;SDS011;17064;47.974;13.826;2024-01-15T21:46:35;5.90;;;2.65;;
30249;SDS011;17064;47.974;13.826;2024-01-15T21:51:57;5.90;;;3.05;;
30249;SDS011;17064;47.974;13.826;2024-01-15T21:57:23;3.95;;;2.42;;
30249;SDS011;17064;47.974;13.826;2024-01-15T22:02:42;5.65;;;2.83;;
30249;SDS011;17064;47.974;13.826;2024-01-15T22:08:04;4.95;;;3.00;;
30249;SDS011;17064;47.974;13.826;2024-01-15T22:13:23;8.45;;;3.00;;
30249;SDS011;17064;47.974;13.826;2024-01-15T22:18:43;6.55;;;2.88;;
30249;SDS011;17064;47.974;13.826;2024-01-15T22:24:02;4.80;;;2.95;;
30249;SDS011;17064;47.974;13.826;2024-01-15T22:29:22;10.32;;;3.22;;
30249;SDS011;17064;47.974;13.826;2024-01-15T22:34:42;8.00;;;3.20;;
30249;SDS011;17064;47.974;13.826;2024-01-15T22:40:01;4.63;;;2.65;;
30249;SDS011;17064;47.974;13.826;2024-01-15T22:45:20;3.95;;;3.00;;
30249;SDS011;17064;47.974;13.826;2024-01-15T22:50:39;8.15;;;3.03;;
30249;SDS011;17064;47.974;13.826;2024-01-15T22:56:03;4.35;;;2.10;;
30249;SDS011;17064;47.974;13.826;2024-01-15T23:01:23;4.97;;;2.40;;
30249;SDS011;17064;47.974;13.826;2024-01-15T23:06:42;3.45;;;2.33;;
30249;SDS011;17064;47.974;13.826;2024-01-15T23:12:01;4.63;;;2.28;;
30249;SDS011;17064;47.974;13.826;2024-01-15T23:17:21;4.35;;;2.28;;
30249;SDS011;17064;47.974;13.826;2024-01-15T23:22:41;3.35;;;1.80;;
30249;SDS011;17064;47.974;13.826;2024-01-15T23:28:00;4.60;;;2.20;;
30249;SDS011;17064;47.974;13.826;2024-01-15T23:33:19;7.18;;;2.17;;
30249;SDS011;17064;47.974;13.826;2024-01-15T23:38:38;3.65;;;1.67;;
30249;SDS011;17064;47.974;13.826;2024-01-15T23:43:58;3.88;;;1.83;;
30249;SDS011;17064;47.974;13.826;2024-01-15T23:49:18;3.10;;;2.05;;
30249;SDS011;17064;47.974;13.826;2024-01-15T23:54:37;4.63;;;2.10;;
30249;SDS011;17064;47.974;13.826;2024-01-15T23:59:57;2.42;;;1.65;;
